createdAt,value
2017-04-12T00:00:10.628Z,10.52
2017-04-12T00:01:21.666Z,10.55
2017-04-12T00:02:32.956Z,10.51
2017-04-12T00:03:43.964Z,10.47
2017-04-12T00:04:54.978Z,10.47
2017-04-12T00:06:05.979Z,10.44
2017-04-12T00:07:16.984Z,10.38
2017-04-12T00:08:28.199Z,10.32
2017-04-12T00:09:39.197Z,10.36
2017-04-12T00:10:50.196Z,10.25
2017-04-12T00:12:01.195Z,10.32
2017-04-12T00:13:12.386Z,10.32
2017-04-12T00:14:23.635Z,10.32
2017-04-12T00:15:34.643Z,10.33
2017-04-12T00:16:45.647Z,10.25
2017-04-12T00:17:56.650Z,10.28
2017-04-12T00:19:07.653Z,10.21
2017-04-12T00:20:18.636Z,10.23
2017-04-12T00:21:29.634Z,10.17
2017-04-12T00:22:40.838Z,10.14
2017-04-12T00:23:51.894Z,10.17
2017-04-12T00:25:02.893Z,10.17
2017-04-12T00:26:14.088Z,10.23
2017-04-12T00:27:25.089Z,10.13
2017-04-12T00:28:36.085Z,10.11
2017-04-12T00:29:47.097Z,10.17
2017-04-12T00:30:58.303Z,10.15
2017-04-12T00:32:09.314Z,10.13
2017-04-12T00:33:20.321Z,10.15
2017-04-12T00:34:31.373Z,10.13
2017-04-12T00:35:42.372Z,10.13
2017-04-12T00:36:53.586Z,10.08
2017-04-12T00:38:04.578Z,10.14
2017-04-12T00:39:15.801Z,10.08
2017-04-12T00:40:27.010Z,10.07
2017-04-12T00:41:38.022Z,9.99
2017-04-12T00:42:49.636Z,9.95
2017-04-12T00:44:00.643Z,10.02
2017-04-12T00:45:11.651Z,9.99
2017-04-12T00:46:22.650Z,9.95
2017-04-12T00:47:33.644Z,10
2017-04-12T00:48:44.654Z,9.9
2017-04-12T00:49:55.661Z,9.95
2017-04-12T00:51:06.660Z,9.98
2017-04-12T00:52:17.677Z,9.89
2017-04-12T00:53:28.689Z,9.93
2017-04-12T00:54:39.694Z,9.9
2017-04-12T00:55:50.743Z,9.89
2017-04-12T00:57:01.752Z,9.84
2017-04-12T00:58:12.961Z,9.88
2017-04-12T00:59:23.977Z,9.9
2017-04-12T01:00:35.185Z,9.9
2017-04-12T01:01:46.186Z,9.78
2017-04-12T02:04:27.988Z,9.57
2017-04-12T02:05:39.026Z,9.56
2017-04-12T02:06:50.254Z,9.5
2017-04-12T02:08:01.283Z,9.53
2017-04-12T02:09:12.724Z,9.57
2017-04-12T02:10:23.952Z,9.64
2017-04-12T02:11:35.175Z,9.52
2017-04-12T02:12:46.207Z,9.55
2017-04-12T02:13:57.639Z,9.55
2017-04-12T02:15:08.697Z,9.53
2017-04-12T02:16:19.988Z,9.44
2017-04-12T02:17:31.210Z,9.52
2017-04-12T02:18:42.245Z,9.53
2017-04-12T02:19:53.475Z,9.55
2017-04-12T02:21:04.498Z,9.55
2017-04-12T02:22:15.526Z,9.48
2017-04-12T02:23:26.604Z,9.52
2017-04-12T02:24:37.637Z,9.55
2017-04-12T02:25:48.906Z,9.48
2017-04-12T02:27:00.140Z,9.47
2017-04-12T02:28:11.162Z,9.39
2017-04-12T02:29:22.387Z,9.38
2017-04-12T02:30:33.405Z,9.44
2017-04-12T02:31:44.442Z,9.41
2017-04-12T02:32:55.472Z,9.47
2017-04-12T02:34:06.508Z,9.35
2017-04-12T02:35:17.543Z,9.44
2017-04-12T02:36:28.825Z,9.44
2017-04-12T02:37:39.861Z,9.44
2017-04-12T02:38:51.096Z,9.39
2017-04-12T02:40:02.123Z,9.44
2017-04-12T02:41:13.138Z,9.44
2017-04-12T02:42:24.422Z,9.45
2017-04-12T02:43:35.663Z,9.37
2017-04-12T02:44:46.702Z,9.37
2017-04-12T02:45:57.740Z,9.39
2017-04-12T02:47:08.770Z,9.45
2017-04-12T02:48:19.801Z,9.44
2017-04-12T02:49:30.838Z,9.47
2017-04-12T02:50:41.850Z,9.42
2017-04-12T02:51:52.886Z,9.39
2017-04-12T02:53:03.903Z,9.45
2017-04-12T02:54:14.977Z,9.42
2017-04-12T02:55:26.013Z,9.44
2017-04-12T02:56:37.101Z,9.39
2017-04-12T02:57:48.123Z,9.45
2017-04-12T02:58:59.169Z,9.41
2017-04-12T03:00:10.196Z,9.52
2017-04-12T03:01:21.227Z,9.45
2017-04-12T03:02:32.261Z,9.39
2017-04-12T03:03:43.343Z,9.41
2017-04-12T03:04:54.375Z,9.42
2017-04-12T03:06:05.414Z,9.42
2017-04-12T03:07:16.455Z,9.42
2017-04-12T03:08:27.483Z,9.41
2017-04-12T03:09:38.512Z,9.52
2017-04-12T03:10:49.533Z,9.39
2017-04-12T03:12:00.762Z,9.39
2017-04-12T03:13:11.791Z,9.5
2017-04-12T03:14:23.078Z,9.48
2017-04-12T03:15:34.095Z,9.48
2017-04-12T03:16:45.129Z,9.48
2017-04-12T03:17:56.561Z,9.5
2017-04-12T03:19:07.783Z,9.57
2017-04-12T03:20:18.819Z,9.5
2017-04-12T03:21:29.852Z,9.56
2017-04-12T03:22:40.882Z,9.6
2017-04-12T03:23:51.911Z,9.53
2017-04-12T03:25:02.957Z,9.6
2017-04-12T03:26:14.025Z,9.48
2017-04-12T03:27:25.058Z,9.56
2017-04-12T03:28:36.093Z,9.53
2017-04-12T03:29:47.140Z,9.48
2017-04-12T03:30:58.164Z,9.47
2017-04-12T03:32:09.187Z,9.44
2017-04-12T03:33:20.222Z,9.45
2017-04-12T03:34:31.253Z,9.42
2017-04-12T03:35:42.277Z,9.45
2017-04-12T03:36:53.312Z,9.44
2017-04-12T03:38:04.354Z,9.45
2017-04-12T03:39:15.586Z,9.47
2017-04-12T03:40:26.906Z,9.44
2017-04-12T03:41:38.158Z,9.45
2017-04-12T03:42:49.207Z,9.39
2017-04-12T03:44:00.435Z,9.45
2017-04-12T03:45:11.661Z,9.45
2017-04-12T03:46:22.689Z,9.48
2017-04-12T03:47:33.729Z,9.44
2017-04-12T03:48:44.753Z,9.44
2017-04-12T03:49:55.794Z,9.5
2017-04-12T03:51:06.877Z,9.39
2017-04-12T03:52:18.102Z,9.42
2017-04-12T03:53:29.142Z,9.42
2017-04-12T03:54:40.384Z,9.42
2017-04-12T03:55:51.409Z,9.41
2017-04-12T03:57:02.443Z,9.45
2017-04-12T03:58:13.675Z,9.38
2017-04-12T03:59:24.700Z,9.38
2017-04-12T04:00:35.741Z,9.47
2017-04-12T04:01:47.025Z,9.39
2017-04-12T04:02:58.254Z,9.39
2017-04-12T04:04:09.283Z,9.34
2017-04-12T04:05:20.314Z,9.37
2017-04-12T04:06:31.534Z,9.39
2017-04-12T04:07:42.572Z,9.39
2017-04-12T04:08:53.802Z,9.38
2017-04-12T04:10:04.842Z,9.44
2017-04-12T04:11:15.913Z,9.41
2017-04-12T04:12:26.935Z,9.44
2017-04-12T04:13:37.971Z,9.39
2017-04-12T04:14:48.983Z,9.34
2017-04-12T04:16:00.030Z,9.32
2017-04-12T04:17:11.062Z,9.34
2017-04-12T04:18:22.136Z,9.29
2017-04-12T04:19:33.566Z,9.27
2017-04-12T04:20:44.601Z,9.27
2017-04-12T04:21:55.648Z,9.24
2017-04-12T04:23:06.683Z,9.26
2017-04-12T04:24:17.964Z,9.24
2017-04-12T04:25:29.208Z,9.35
2017-04-12T04:26:40.262Z,9.32
2017-04-12T04:27:51.493Z,9.34
2017-04-12T04:29:02.767Z,9.27
2017-04-12T04:30:13.997Z,9.35
2017-04-12T04:31:25.018Z,9.32
2017-04-12T04:32:36.043Z,9.27
2017-04-12T04:33:47.075Z,9.3
2017-04-12T04:34:58.301Z,9.29
2017-04-12T04:36:09.326Z,9.27
2017-04-12T04:37:20.751Z,9.29
2017-04-12T04:38:31.782Z,9.26
2017-04-12T04:39:42.866Z,9.34
2017-04-12T04:40:54.100Z,9.23
2017-04-12T04:42:05.133Z,9.26
2017-04-12T04:43:16.157Z,9.34
2017-04-12T04:44:27.185Z,9.32
2017-04-12T04:45:38.229Z,9.38
2017-04-12T04:46:49.263Z,9.32
2017-04-12T04:48:00.290Z,9.34
2017-04-12T04:49:11.532Z,9.29
2017-04-12T04:50:22.559Z,9.23
2017-04-12T04:51:33.776Z,9.27
2017-04-12T04:52:44.805Z,9.29
2017-04-12T04:53:56.039Z,9.2
2017-04-12T04:55:07.270Z,9.3
2017-04-12T04:56:18.349Z,9.27
2017-04-12T04:57:29.370Z,9.21
2017-04-12T04:58:40.613Z,9.27
2017-04-12T04:59:51.844Z,9.12
2017-04-12T05:01:02.870Z,9.21
2017-04-12T05:02:13.905Z,9.21
2017-04-12T05:03:25.141Z,9.21
2017-04-12T05:04:36.177Z,9.21
2017-04-12T05:05:47.658Z,9.2
2017-04-12T05:06:58.722Z,9.21
2017-04-12T05:08:09.942Z,9.3
2017-04-12T05:09:20.971Z,9.34
2017-04-12T05:10:31.993Z,9.32
2017-04-12T05:11:43.217Z,9.23
2017-04-12T05:12:54.253Z,9.29
2017-04-12T05:14:05.289Z,9.3
2017-04-12T05:15:16.320Z,9.32
2017-04-12T05:16:27.808Z,9.3
2017-04-12T05:17:38.825Z,9.29
2017-04-12T05:18:50.045Z,9.35
2017-04-12T05:20:01.276Z,9.35
2017-04-12T05:21:12.312Z,9.37
2017-04-12T05:22:23.339Z,9.34
2017-04-12T05:23:34.567Z,9.35
2017-04-12T05:24:45.604Z,9.38
2017-04-12T05:25:56.838Z,9.32
2017-04-12T05:27:07.862Z,9.37
2017-04-12T05:28:18.900Z,9.37
2017-04-12T05:29:29.935Z,9.38
2017-04-12T05:30:40.965Z,9.38
2017-04-12T05:31:51.998Z,9.42
2017-04-12T05:33:03.076Z,9.37
2017-04-12T05:34:14.094Z,9.41
2017-04-12T05:35:25.333Z,9.37
2017-04-12T05:36:36.376Z,9.45
2017-04-12T05:37:47.594Z,9.45
2017-04-12T05:38:58.636Z,9.37
2017-04-12T05:40:09.659Z,9.41
2017-04-12T05:41:20.692Z,9.44
2017-04-12T05:42:31.731Z,9.41
2017-04-12T05:43:42.816Z,9.42
2017-04-12T05:44:53.832Z,9.41
2017-04-12T05:46:04.901Z,9.39
2017-04-12T05:47:15.936Z,9.42
2017-04-12T05:48:27.169Z,9.41
2017-04-12T05:49:38.245Z,9.42
2017-04-12T05:50:49.279Z,9.39
2017-04-12T05:52:00.314Z,9.39
2017-04-12T05:53:11.337Z,9.45
2017-04-12T05:54:22.626Z,9.52
2017-04-12T05:55:33.646Z,9.48
2017-04-12T05:56:44.881Z,9.47
2017-04-12T05:57:55.920Z,9.53
2017-04-12T05:59:06.955Z,9.57
2017-04-12T06:00:17.982Z,9.57
2017-04-12T06:01:29.212Z,9.55
2017-04-12T06:02:40.242Z,9.67
2017-04-12T06:03:51.275Z,9.72
2017-04-12T06:05:02.301Z,9.7
2017-04-12T06:06:13.334Z,9.82
2017-04-12T06:07:24.375Z,9.82
2017-04-12T06:08:35.605Z,9.77
2017-04-12T06:09:46.638Z,9.77
2017-04-12T06:10:57.709Z,9.8
2017-04-12T06:12:09.142Z,9.75
2017-04-12T06:13:20.167Z,9.77
2017-04-12T06:14:31.207Z,9.81
2017-04-12T06:15:42.239Z,9.85
2017-04-12T06:16:53.268Z,9.82
2017-04-12T06:18:04.294Z,9.77
2017-04-12T06:19:15.320Z,9.81
2017-04-12T06:20:26.406Z,9.9
2017-04-12T06:21:37.624Z,9.88
2017-04-12T06:22:48.653Z,9.92
2017-04-12T06:23:59.679Z,10.15
2017-04-12T06:25:10.721Z,10.17
2017-04-12T06:26:21.753Z,10.33
2017-04-12T06:27:32.779Z,10.31
2017-04-12T06:28:43.806Z,10.33
2017-04-12T06:29:54.841Z,10.29
2017-04-12T06:31:05.921Z,10.38
2017-04-12T06:32:16.951Z,10.35
2017-04-12T06:33:27.991Z,10.29
2017-04-12T06:34:39.021Z,10.35
2017-04-12T06:35:50.056Z,10.35
2017-04-12T06:37:01.145Z,10.36
2017-04-12T06:38:12.172Z,10.31
2017-04-12T06:39:23.221Z,10.46
2017-04-12T06:40:34.255Z,10.46
2017-04-12T06:41:45.488Z,10.46
2017-04-12T06:42:56.519Z,10.41
2017-04-12T06:44:08.151Z,10.42
2017-04-12T06:45:19.178Z,10.46
2017-04-12T06:46:30.204Z,10.51
2017-04-12T06:47:41.234Z,10.51
2017-04-12T06:48:52.274Z,10.55
2017-04-12T06:50:03.310Z,10.51
2017-04-12T06:51:14.337Z,10.47
2017-04-12T06:52:25.632Z,10.46
2017-04-12T06:53:36.674Z,10.47
2017-04-12T06:54:47.709Z,10.46
2017-04-12T06:55:58.933Z,10.46
2017-04-12T06:57:09.963Z,10.44
2017-04-12T06:58:20.990Z,10.47
2017-04-12T06:59:32.227Z,10.57
2017-04-12T07:00:43.254Z,10.61
2017-04-12T07:01:54.287Z,10.73
2017-04-12T07:03:05.374Z,10.87
2017-04-12T07:04:16.414Z,10.9
2017-04-12T07:05:27.441Z,11.06
2017-04-12T07:06:38.488Z,11.05
2017-04-12T07:07:49.516Z,11.06
2017-04-12T07:09:00.547Z,11.16
2017-04-12T07:10:11.641Z,11.09
2017-04-12T07:11:22.665Z,11.15
2017-04-12T07:12:33.696Z,11.13
2017-04-12T07:13:44.780Z,11.2
2017-04-12T07:14:55.813Z,11.16
2017-04-12T07:16:07.038Z,11.12
2017-04-12T07:17:18.263Z,11.38
2017-04-12T07:18:29.295Z,11.39
2017-04-12T07:19:40.779Z,11.48
2017-04-12T07:20:51.812Z,11.43
2017-04-12T07:22:02.887Z,11.42
2017-04-12T07:23:13.915Z,11.43
2017-04-12T07:24:24.944Z,11.42
2017-04-12T07:25:35.966Z,11.46
2017-04-12T07:26:47.204Z,11.45
2017-04-12T07:27:58.262Z,11.27
2017-04-12T07:29:09.295Z,11.24
2017-04-12T07:30:20.520Z,11.15
2017-04-12T07:31:31.608Z,11.09
2017-04-12T07:32:42.643Z,11.15
2017-04-12T07:33:53.678Z,11.08
2017-04-12T07:35:04.728Z,11.2
2017-04-12T07:36:15.759Z,11.21
2017-04-12T07:37:26.983Z,11.23
2017-04-12T07:38:38.017Z,11.24
2017-04-12T07:39:49.055Z,11.33
2017-04-12T07:41:00.128Z,11.34
2017-04-12T07:42:11.359Z,11.33
2017-04-12T07:43:22.575Z,11.31
2017-04-12T07:44:33.597Z,11.38
2017-04-12T07:45:44.655Z,11.31
2017-04-12T07:46:55.877Z,11.27
2017-04-12T07:48:06.916Z,11.26
2017-04-12T07:49:17.952Z,11.28
2017-04-12T07:50:28.983Z,11.28
2017-04-12T07:51:40.467Z,11.33
2017-04-12T07:52:51.710Z,11.21
2017-04-12T07:54:02.743Z,11.16
2017-04-12T07:55:13.765Z,11.03
2017-04-12T07:56:24.789Z,11.03
2017-04-12T07:57:36.237Z,11.06
2017-04-12T07:58:47.272Z,11.02
2017-04-12T07:59:58.519Z,11.03
2017-04-12T08:01:09.549Z,11.13
2017-04-12T08:02:20.577Z,11.06
2017-04-12T08:03:31.602Z,11.18
2017-04-12T08:04:42.835Z,11.15
2017-04-12T08:05:53.871Z,11.3
2017-04-12T08:07:04.927Z,11.26
2017-04-12T08:08:15.948Z,11.38
2017-04-12T08:09:26.973Z,11.31
2017-04-12T08:10:37.998Z,11.45
2017-04-12T08:11:49.016Z,11.45
2017-04-12T08:13:00.091Z,11.43
2017-04-12T08:14:11.121Z,11.56
2017-04-12T08:15:22.145Z,11.56
2017-04-12T08:16:33.171Z,11.57
2017-04-12T08:17:44.396Z,11.79
2017-04-12T08:18:55.427Z,11.97
2017-04-12T08:20:06.652Z,12.2
2017-04-12T08:21:17.884Z,12.29
2017-04-12T08:22:28.910Z,12.45
2017-04-12T08:23:40.201Z,12.37
2017-04-12T08:24:51.227Z,12.37
2017-04-12T08:26:02.245Z,12.22
2017-04-12T08:27:13.529Z,12.05
2017-04-12T08:28:24.963Z,12.03
2017-04-12T08:29:35.992Z,11.91
2017-04-12T08:30:47.029Z,11.95
2017-04-12T08:31:58.262Z,12
2017-04-12T08:33:09.488Z,12
2017-04-12T08:34:20.972Z,12.13
2017-04-12T08:35:32.008Z,12.08
2017-04-12T08:36:43.038Z,12.04
2017-04-12T08:37:54.070Z,12.05
2017-04-12T08:39:05.097Z,12.08
2017-04-12T08:40:16.119Z,12.11
2017-04-12T08:41:27.152Z,12.08
2017-04-12T08:42:38.181Z,12.2
2017-04-12T08:43:49.423Z,12.25
2017-04-12T08:45:00.449Z,12.26
2017-04-12T08:46:11.468Z,12.19
2017-04-12T08:47:22.493Z,12.31
2017-04-12T08:48:33.529Z,12.28
2017-04-12T08:49:44.616Z,12.36
2017-04-12T08:50:55.659Z,12.4
2017-04-12T08:52:06.692Z,12.41
2017-04-12T08:53:17.722Z,12.44
2017-04-12T08:54:28.757Z,12.36
2017-04-12T08:55:39.784Z,12.29
2017-04-12T08:56:51.209Z,12.34
2017-04-12T08:58:02.247Z,12.29
2017-04-12T08:59:13.683Z,12.26
2017-04-12T09:00:24.701Z,12.2
2017-04-12T09:01:35.726Z,12.34
2017-04-12T09:02:46.749Z,12.31
2017-04-12T09:03:57.986Z,12.37
2017-04-12T09:05:09.272Z,12.47
2017-04-12T09:06:20.499Z,12.4
2017-04-12T09:07:31.540Z,12.56
2017-04-12T09:08:42.583Z,12.58
2017-04-12T09:09:53.621Z,12.63
2017-04-12T09:11:04.654Z,12.81
2017-04-12T09:12:15.680Z,13.16
2017-04-12T09:13:26.713Z,13.32
2017-04-12T09:14:37.752Z,13.55
2017-04-12T09:15:48.777Z,13.78
2017-04-12T09:17:00.011Z,14.08
2017-04-12T09:18:11.236Z,14.46
2017-04-12T09:19:22.263Z,14.63
2017-04-12T09:20:33.332Z,14.59
2017-04-12T09:21:44.367Z,14.59
2017-04-12T09:22:55.412Z,14.52
2017-04-12T09:24:06.453Z,14.59
2017-04-12T09:25:17.488Z,14.44
2017-04-12T09:26:28.533Z,14.42
2017-04-12T09:27:39.581Z,14.46
2017-04-12T09:28:50.615Z,14.52
2017-04-12T09:30:01.651Z,14.56
2017-04-12T09:31:12.683Z,14.51
2017-04-12T09:32:23.719Z,14.7
2017-04-12T09:33:34.755Z,14.75
2017-04-12T09:34:45.856Z,14.64
2017-04-12T09:35:56.889Z,14.61
2017-04-12T09:37:08.127Z,14.67
2017-04-12T09:38:19.172Z,14.53
2017-04-12T09:39:30.221Z,14.63
2017-04-12T09:40:41.260Z,14.49
2017-04-12T09:41:52.307Z,14.46
2017-04-12T09:43:03.330Z,14.31
2017-04-12T09:44:14.562Z,14.28
2017-04-12T09:45:25.797Z,14.15
2017-04-12T09:46:36.886Z,14.03
2017-04-12T09:47:47.927Z,14.03
2017-04-12T09:48:59.195Z,14.12
2017-04-12T09:50:10.234Z,14.19
2017-04-12T09:51:21.485Z,14.44
2017-04-12T09:52:32.720Z,14.52
2017-04-12T09:53:43.750Z,14.64
2017-04-12T09:54:54.796Z,14.93
2017-04-12T09:56:05.838Z,14.95
2017-04-12T09:57:17.086Z,14.94
2017-04-12T09:58:28.124Z,14.8
2017-04-12T09:59:39.351Z,14.64
2017-04-12T10:00:50.390Z,14.8
2017-04-12T10:02:01.434Z,14.77
2017-04-12T10:03:12.470Z,14.82
2017-04-12T10:04:23.516Z,14.94
2017-04-12T10:05:34.955Z,15.12
2017-04-12T10:06:46.000Z,15.08
2017-04-12T10:07:57.048Z,15.08
2017-04-12T10:09:08.288Z,15.18
2017-04-12T10:10:19.330Z,15.16
2017-04-12T10:11:30.363Z,15.1
2017-04-12T10:12:41.399Z,14.98
2017-04-12T10:13:52.437Z,14.89
2017-04-12T10:15:03.473Z,14.86
2017-04-12T10:16:14.530Z,14.83
2017-04-12T10:17:25.617Z,14.82
2017-04-12T10:18:36.649Z,14.7
2017-04-12T10:19:47.686Z,14.46
2017-04-12T10:20:58.723Z,14.41
2017-04-12T10:22:09.965Z,14.38
2017-04-12T10:23:21.205Z,14.39
2017-04-12T10:24:32.238Z,14.15
2017-04-12T10:25:43.276Z,14.13
2017-04-12T10:26:54.302Z,14.2
2017-04-12T10:28:05.788Z,14.23
2017-04-12T10:29:16.818Z,14.13
2017-04-12T10:30:27.850Z,14.16
2017-04-12T10:31:38.879Z,14.23
2017-04-12T10:32:49.909Z,14.06
2017-04-12T10:34:00.939Z,14.16
2017-04-12T10:35:11.973Z,14.3
2017-04-12T10:36:22.999Z,14.46
2017-04-12T10:37:34.028Z,14.77
2017-04-12T10:38:45.272Z,14.93
2017-04-12T10:39:56.309Z,14.86
2017-04-12T10:41:07.345Z,14.86
2017-04-12T10:42:18.387Z,15.01
2017-04-12T10:43:29.414Z,15.13
2017-04-12T10:44:40.450Z,14.98
2017-04-12T10:45:51.682Z,15.02
2017-04-12T10:47:02.710Z,15.07
2017-04-12T10:48:13.952Z,14.95
2017-04-12T10:49:25.180Z,14.86
2017-04-12T10:50:36.214Z,14.66
2017-04-12T10:51:47.238Z,14.56
2017-04-12T10:52:58.466Z,14.52
2017-04-12T10:54:09.554Z,14.42
2017-04-12T10:55:20.585Z,14.27
2017-04-12T10:56:31.611Z,14.31
2017-04-12T10:57:42.632Z,14.36
2017-04-12T10:58:53.904Z,14.46
2017-04-12T11:00:04.943Z,14.38
2017-04-12T11:01:15.987Z,14.46
2017-04-12T11:02:27.013Z,14.33
2017-04-12T11:03:38.038Z,14.2
2017-04-12T11:04:49.114Z,14.03
2017-04-12T11:06:00.143Z,13.97
2017-04-12T11:07:11.186Z,13.94
2017-04-12T11:08:22.408Z,13.84
2017-04-12T11:09:33.430Z,13.78
2017-04-12T11:10:44.461Z,13.75
2017-04-12T11:11:55.504Z,13.68
2017-04-12T11:13:06.539Z,13.69
2017-04-12T11:14:17.576Z,13.66
2017-04-12T11:15:28.655Z,13.7
2017-04-12T11:16:39.896Z,13.78
2017-04-12T11:17:50.928Z,13.66
2017-04-12T11:19:01.962Z,13.72
2017-04-12T11:20:12.996Z,13.65
2017-04-12T11:21:24.237Z,13.62
2017-04-12T11:22:35.267Z,13.68
2017-04-12T11:23:46.308Z,13.6
2017-04-12T11:24:57.548Z,13.63
2017-04-12T11:26:08.812Z,13.62
2017-04-12T11:27:20.088Z,13.69
2017-04-12T11:28:31.127Z,13.68
2017-04-12T11:29:42.366Z,13.76
2017-04-12T11:30:53.394Z,13.63
2017-04-12T11:32:04.422Z,13.73
2017-04-12T11:33:15.449Z,13.69
2017-04-12T11:34:26.477Z,13.79
2017-04-12T11:35:37.721Z,13.84
2017-04-12T11:36:48.956Z,13.7
2017-04-12T11:37:59.996Z,13.69
2017-04-12T11:39:11.090Z,13.66
2017-04-12T11:40:22.373Z,13.69
2017-04-12T11:41:33.395Z,13.6
2017-04-12T11:42:44.626Z,13.54
2017-04-12T11:43:55.669Z,13.47
2017-04-12T11:45:06.703Z,13.44
2017-04-12T11:46:17.731Z,13.35
2017-04-12T11:47:28.806Z,13.31
2017-04-12T11:48:39.836Z,13.25
2017-04-12T11:49:51.074Z,13.28
2017-04-12T11:51:02.104Z,13.17
2017-04-12T11:52:13.175Z,13.1
2017-04-12T11:53:24.214Z,13.1
2017-04-12T11:54:35.286Z,13.03
2017-04-12T11:55:46.370Z,13.1
2017-04-12T11:56:57.403Z,13.09
2017-04-12T11:58:08.427Z,13.13
2017-04-12T11:59:19.657Z,13.17
2017-04-12T12:00:30.690Z,13.19
2017-04-12T12:01:41.724Z,13.24
2017-04-12T12:02:52.736Z,13.19
2017-04-12T12:04:03.765Z,13.09
2017-04-12T12:05:14.798Z,12.91
2017-04-12T12:06:25.845Z,12.77
2017-04-12T12:07:36.870Z,12.71
2017-04-12T12:08:47.887Z,12.56
2017-04-12T12:09:58.922Z,12.47
2017-04-12T12:11:10.158Z,12.53
2017-04-12T12:12:21.210Z,12.48
2017-04-12T12:13:32.228Z,12.4
2017-04-12T12:14:43.457Z,12.43
2017-04-12T12:15:54.489Z,12.4
2017-04-12T12:17:05.539Z,12.45
2017-04-12T12:18:16.562Z,12.47
2017-04-12T12:19:27.803Z,12.4
2017-04-12T12:20:38.825Z,12.25
2017-04-12T12:21:50.313Z,12.36
2017-04-12T12:23:01.344Z,12.19
2017-04-12T12:24:12.377Z,12.28
2017-04-12T12:25:23.411Z,12.25
2017-04-12T12:26:34.449Z,12.26
2017-04-12T12:27:45.467Z,12.19
2017-04-12T12:28:56.490Z,12.23
2017-04-12T12:30:07.536Z,12.31
2017-04-12T12:31:18.555Z,12.19
2017-04-12T12:32:29.581Z,12.19
2017-04-12T12:33:40.602Z,12.16
2017-04-12T12:34:51.830Z,12.25
2017-04-12T12:36:03.058Z,12.2
2017-04-12T12:37:14.145Z,12.18
2017-04-12T12:38:25.173Z,12.08
2017-04-12T12:39:36.204Z,12.05
2017-04-12T12:40:47.232Z,12.25
2017-04-12T12:41:58.287Z,12.19
2017-04-12T12:43:10.888Z,12.22
2017-04-12T12:44:21.930Z,12.31
2017-04-12T12:45:32.962Z,12.33
2017-04-12T12:46:43.988Z,12.26
2017-04-12T12:47:55.024Z,12.34
2017-04-12T12:49:06.086Z,12.44
2017-04-12T12:50:17.117Z,12.47
2017-04-12T12:51:28.146Z,12.48
2017-04-12T12:52:39.377Z,12.51
2017-04-12T12:53:50.403Z,12.45
2017-04-12T12:55:01.422Z,12.45
2017-04-12T12:56:12.655Z,12.58
2017-04-12T12:57:23.881Z,12.59
2017-04-12T12:58:35.119Z,12.59
2017-04-12T12:59:46.143Z,12.59
2017-04-12T13:00:57.371Z,12.56
2017-04-12T13:02:08.394Z,12.55
2017-04-12T13:03:19.414Z,12.45
2017-04-12T13:04:30.441Z,12.41
2017-04-12T13:05:41.662Z,12.41
2017-04-12T13:06:52.696Z,12.43
2017-04-12T13:08:04.139Z,12.44
2017-04-12T13:09:15.178Z,12.37
2017-04-12T13:10:26.196Z,12.34
2017-04-12T13:11:37.227Z,12.36
2017-04-12T13:12:48.254Z,12.29
2017-04-12T13:13:59.273Z,12.36
2017-04-12T13:15:10.697Z,12.31
2017-04-12T13:16:21.731Z,12.28
2017-04-12T13:17:32.765Z,12.25
2017-04-12T13:18:44.037Z,12.31
2017-04-12T13:19:55.067Z,12.31
2017-04-12T13:21:06.087Z,12.26
2017-04-12T13:22:17.102Z,12.26
2017-04-12T13:23:28.139Z,12.29
2017-04-12T13:24:39.162Z,12.26
2017-04-12T13:25:50.191Z,12.31
2017-04-12T13:27:01.234Z,12.26
2017-04-12T13:28:12.713Z,12.29
2017-04-12T13:29:23.738Z,12.33
2017-04-12T13:30:34.985Z,12.34
2017-04-12T13:31:46.009Z,12.33
2017-04-12T13:32:57.039Z,12.33
2017-04-12T13:34:08.065Z,12.26
2017-04-12T13:35:19.137Z,12.22
2017-04-12T13:36:30.358Z,12.23
2017-04-12T13:37:41.386Z,12.22
2017-04-12T13:38:52.404Z,12.22
2017-04-12T13:40:03.641Z,12.05
2017-04-12T13:41:14.874Z,12.05
2017-04-12T13:42:25.905Z,11.95
2017-04-12T13:43:36.938Z,11.98
2017-04-12T13:44:48.013Z,11.95
2017-04-12T13:45:59.041Z,11.89
2017-04-12T13:47:10.064Z,12.1
2017-04-12T13:48:21.301Z,12.11
2017-04-12T13:49:32.324Z,12.08
2017-04-12T13:50:43.393Z,12.22
2017-04-12T13:51:54.414Z,12.08
2017-04-12T13:53:05.646Z,12.03
2017-04-12T13:54:16.678Z,12.19
2017-04-12T13:55:27.963Z,12.03
2017-04-12T13:56:39.033Z,12.1
2017-04-12T13:57:50.086Z,12.13
2017-04-12T13:59:01.121Z,12.1
2017-04-12T14:00:12.162Z,12.04
2017-04-12T14:01:23.847Z,11.91
2017-04-12T14:02:34.878Z,12
2017-04-12T14:03:46.361Z,11.88
2017-04-12T14:04:57.586Z,12.07
2017-04-12T14:06:08.610Z,12.13
2017-04-12T14:07:19.849Z,12.11
2017-04-12T14:08:30.879Z,12.1
2017-04-12T14:09:41.924Z,12.08
2017-04-12T14:10:52.954Z,12.16
2017-04-12T14:12:03.969Z,12.08
2017-04-12T14:13:14.986Z,12.15
2017-04-12T14:14:26.413Z,12.1
2017-04-12T14:15:37.447Z,12.04
2017-04-12T14:16:48.527Z,12.04
2017-04-12T14:17:59.556Z,12.08
2017-04-12T14:19:10.617Z,12.11
2017-04-12T14:20:21.638Z,12.19
2017-04-12T14:21:32.862Z,12.2
2017-04-12T14:22:43.894Z,12.33
2017-04-12T14:23:54.927Z,12.4
2017-04-12T14:25:05.949Z,12.44
2017-04-12T14:26:16.969Z,12.45
2017-04-12T14:27:28.051Z,12.52
2017-04-12T14:28:39.072Z,12.38
2017-04-12T14:29:50.299Z,12.47
2017-04-12T14:31:01.335Z,12.44
2017-04-12T14:32:12.368Z,12.4
2017-04-12T14:33:23.607Z,12.58
2017-04-12T14:34:34.641Z,12.58
2017-04-12T14:35:45.666Z,12.58
2017-04-12T14:36:56.891Z,12.56
2017-04-12T14:38:08.167Z,12.61
2017-04-12T14:39:19.198Z,12.58
2017-04-12T14:40:30.225Z,12.59
2017-04-12T14:41:41.458Z,12.66
2017-04-12T14:42:52.481Z,12.74
2017-04-12T14:44:03.508Z,12.74
2017-04-12T14:45:14.543Z,12.83
2017-04-12T14:46:25.564Z,12.71
2017-04-12T14:47:36.589Z,12.86
2017-04-12T14:48:47.630Z,12.74
2017-04-12T14:49:58.663Z,12.74
2017-04-12T14:51:09.709Z,12.77
2017-04-12T14:52:20.755Z,12.69
2017-04-12T14:53:31.991Z,12.53
2017-04-12T14:54:43.064Z,12.59
2017-04-12T14:55:54.094Z,12.52
2017-04-12T14:57:05.132Z,12.63
2017-04-12T14:58:16.160Z,12.58
2017-04-12T14:59:27.391Z,12.55
2017-04-12T15:00:38.486Z,12.56
2017-04-12T15:01:49.519Z,12.61
2017-04-12T15:03:00.762Z,12.59
2017-04-12T15:04:11.843Z,12.61
2017-04-12T15:05:23.081Z,12.56
2017-04-12T15:06:34.316Z,12.58
2017-04-12T15:07:45.534Z,12.56
2017-04-12T15:08:56.554Z,12.52
2017-04-12T15:10:07.573Z,12.55
2017-04-12T15:11:18.598Z,12.53
2017-04-12T15:12:29.631Z,12.55
2017-04-12T15:13:40.653Z,12.56
2017-04-12T15:14:51.730Z,12.59
2017-04-12T15:16:02.965Z,12.59
2017-04-12T15:17:14.012Z,12.56
2017-04-12T15:18:25.045Z,12.56
2017-04-12T15:19:36.275Z,12.56
2017-04-12T15:20:47.335Z,12.58
2017-04-12T15:21:58.569Z,12.56
2017-04-12T15:23:09.607Z,12.55
2017-04-12T15:24:20.832Z,12.47
2017-04-12T15:25:32.060Z,12.59
2017-04-12T15:26:43.100Z,12.44
2017-04-12T15:27:54.121Z,12.59
2017-04-12T15:29:05.153Z,12.56
2017-04-12T15:30:16.185Z,12.59
2017-04-12T15:31:27.223Z,12.56
2017-04-12T15:32:38.256Z,12.47
2017-04-12T15:33:49.296Z,12.47
2017-04-12T15:35:00.329Z,12.53
2017-04-12T15:36:11.613Z,12.51
2017-04-12T15:37:22.645Z,12.43
2017-04-12T15:38:33.674Z,12.48
2017-04-12T15:39:44.706Z,12.47
2017-04-12T15:40:55.725Z,12.44
2017-04-12T15:42:06.951Z,12.47
2017-04-12T15:43:18.000Z,12.41
2017-04-12T15:44:29.038Z,12.4
2017-04-12T15:45:40.076Z,12.37
2017-04-12T15:46:51.166Z,12.38
2017-04-12T15:48:02.188Z,12.29
2017-04-12T15:49:13.218Z,12.26
2017-04-12T15:50:24.446Z,12.26
2017-04-12T15:51:35.693Z,12.33
2017-04-12T15:52:46.921Z,12.26
2017-04-12T15:53:58.548Z,12.25
2017-04-12T15:55:09.580Z,12.19
2017-04-12T15:56:20.659Z,12.33
2017-04-12T15:57:31.731Z,12.16
2017-04-12T15:58:42.756Z,12.26
2017-04-12T15:59:53.787Z,12.11
2017-04-12T16:01:04.809Z,12.08
2017-04-12T16:02:15.894Z,12.11
2017-04-12T16:03:27.127Z,12.1
2017-04-12T16:04:38.168Z,12.01
2017-04-12T16:05:49.205Z,12.01
2017-04-12T16:07:00.433Z,11.98
2017-04-12T16:08:11.471Z,11.88
2017-04-12T16:09:22.496Z,11.88
2017-04-12T16:10:33.724Z,11.91
2017-04-12T16:11:44.744Z,11.86
2017-04-12T16:12:55.977Z,11.91
2017-04-12T16:14:07.465Z,11.78
2017-04-12T16:15:18.700Z,11.76
2017-04-12T16:16:29.732Z,11.71
2017-04-12T16:17:40.958Z,11.76
2017-04-12T16:18:51.998Z,11.75
2017-04-12T16:20:03.037Z,11.73
2017-04-12T16:21:14.074Z,11.67
2017-04-12T16:22:25.116Z,11.7
2017-04-12T16:23:36.347Z,11.68
2017-04-12T16:24:47.663Z,11.61
2017-04-12T16:25:58.696Z,11.66
2017-04-12T16:27:09.733Z,11.52
2017-04-12T16:28:20.981Z,11.57